Auburndale, Florida
Current Conditions -  °F | °C
As of 3:53 AM on Sunday 21 Dec 2014 (Local Time) from KGIF Reporting Station
Overcast Overcast  
Wind Chill: 18°   Ceiling: 10000
Heat Index: 18°   Visibility: 10mi
Dew Point: 15°   Wind: 3mph
Humidity: 84%   Direction: 90°E
Pressure: 30.07"   Gusts: NA
Location:  28.06°N, 81.78°W
Report Text: KGIF 210853Z AUTO 09003KT 10SM FEW075 OVC100 18/15 A3007 RMK AO2 SLP180 T01780150 56004
Loading
Personal Weather Stations






























Interactive Weather Map New forecast layout! Learn more

10-Day Weather Forecast

Advertisements
Track Severe Weather on mobile